sensor_id;sensor_type;location;lat;lon;timestamp;pressure;altitude;pressure_sealevel;temperature;humidity
30708;BME280;17458;48.958;8.284;2023-10-08T00:02:33;101244.09;;;17.08;55.66
30708;BME280;17458;48.958;8.284;2023-10-08T00:05:17;101246.78;;;17.31;55.19
30708;BME280;17458;48.958;8.284;2023-10-08T00:08:02;101259.00;;;17.47;54.58
30708;BME280;17458;48.958;8.284;2023-10-08T00:10:48;101253.41;;;17.41;54.55
30708;BME280;17458;48.958;8.284;2023-10-08T00:13:33;101250.31;;;17.30;54.96
30708;BME280;17458;48.958;8.284;2023-10-08T00:16:23;101247.88;;;17.36;54.86
30708;BME280;17458;48.958;8.284;2023-10-08T00:19:07;101250.78;;;17.19;54.68
30708;BME280;17458;48.958;8.284;2023-10-08T00:21:52;101252.09;;;17.54;54.28
30708;BME280;17458;48.958;8.284;2023-10-08T00:24:37;101246.09;;;17.37;54.49
30708;BME280;17458;48.958;8.284;2023-10-08T00:27:24;101238.50;;;17.49;53.65
30708;BME280;17458;48.958;8.284;2023-10-08T00:30:09;101247.03;;;17.38;54.13
30708;BME280;17458;48.958;8.284;2023-10-08T00:33:02;101249.16;;;17.71;53.58
30708;BME280;17458;48.958;8.284;2023-10-08T00:35:47;101243.53;;;17.64;53.15
30708;BME280;17458;48.958;8.284;2023-10-08T00:38:31;101238.94;;;17.14;54.40
30708;BME280;17458;48.958;8.284;2023-10-08T00:41:16;101239.94;;;17.16;54.26
30708;BME280;17458;48.958;8.284;2023-10-08T00:44:11;101238.34;;;17.21;53.94
30708;BME280;17458;48.958;8.284;2023-10-08T00:47:01;101240.84;;;17.40;53.49
30708;BME280;17458;48.958;8.284;2023-10-08T00:49:45;101239.59;;;17.30;53.27
30708;BME280;17458;48.958;8.284;2023-10-08T00:52:29;101231.66;;;17.10;54.08
30708;BME280;17458;48.958;8.284;2023-10-08T00:55:14;101225.19;;;17.05;53.64
30708;BME280;17458;48.958;8.284;2023-10-08T00:58:05;101222.25;;;16.98;54.55
30708;BME280;17458;48.958;8.284;2023-10-08T01:00:55;101225.34;;;16.85;54.53
30708;BME280;17458;48.958;8.284;2023-10-08T01:03:44;101223.34;;;16.80;54.98
30708;BME280;17458;48.958;8.284;2023-10-08T01:06:28;101212.44;;;16.99;54.26
30708;BME280;17458;48.958;8.284;2023-10-08T01:09:14;101212.50;;;17.00;54.33
30708;BME280;17458;48.958;8.284;2023-10-08T01:12:07;101212.09;;;17.12;54.22
30708;BME280;17458;48.958;8.284;2023-10-08T01:14:53;101212.41;;;16.97;54.66
30708;BME280;17458;48.958;8.284;2023-10-08T01:17:38;101215.44;;;17.07;54.42
30708;BME280;17458;48.958;8.284;2023-10-08T01:20:35;101209.56;;;16.48;55.40
30708;BME280;17458;48.958;8.284;2023-10-08T01:23:27;101214.78;;;16.90;55.02
30708;BME280;17458;48.958;8.284;2023-10-08T01:26:12;101212.88;;;17.10;54.05
30708;BME280;17458;48.958;8.284;2023-10-08T01:28:59;101215.19;;;16.77;54.75
30708;BME280;17458;48.958;8.284;2023-10-08T01:31:50;101219.16;;;17.10;54.11
30708;BME280;17458;48.958;8.284;2023-10-08T01:34:37;101223.22;;;17.23;53.52
30708;BME280;17458;48.958;8.284;2023-10-08T01:37:22;101228.69;;;17.26;53.47
30708;BME280;17458;48.958;8.284;2023-10-08T01:40:07;101230.97;;;17.39;53.28
30708;BME280;17458;48.958;8.284;2023-10-08T01:42:52;101237.50;;;17.47;52.74
30708;BME280;17458;48.958;8.284;2023-10-08T01:45:37;101229.97;;;17.12;53.16
30708;BME280;17458;48.958;8.284;2023-10-08T01:48:24;101230.66;;;17.31;53.08
30708;BME280;17458;48.958;8.284;2023-10-08T01:51:13;101234.22;;;17.07;53.65
30708;BME280;17458;48.958;8.284;2023-10-08T01:54:08;101227.94;;;17.06;53.86
30708;BME280;17458;48.958;8.284;2023-10-08T01:56:55;101223.19;;;16.99;53.95
30708;BME280;17458;48.958;8.284;2023-10-08T01:59:39;101219.44;;;16.94;53.83
30708;BME280;17458;48.958;8.284;2023-10-08T02:02:23;101216.53;;;16.65;54.58
30708;BME280;17458;48.958;8.284;2023-10-08T02:05:07;101214.31;;;16.33;55.64
30708;BME280;17458;48.958;8.284;2023-10-08T02:07:52;101213.59;;;16.37;55.25
30708;BME280;17458;48.958;8.284;2023-10-08T02:10:40;101216.25;;;16.59;54.92
30708;BME280;17458;48.958;8.284;2023-10-08T02:13:26;101209.56;;;16.48;54.57
30708;BME280;17458;48.958;8.284;2023-10-08T02:16:10;101212.25;;;16.26;55.31
30708;BME280;17458;48.958;8.284;2023-10-08T02:18:54;101216.94;;;16.54;54.38
30708;BME280;17458;48.958;8.284;2023-10-08T02:21:39;101209.31;;;16.87;53.72
30708;BME280;17458;48.958;8.284;2023-10-08T02:24:24;101216.13;;;16.56;54.37
30708;BME280;17458;48.958;8.284;2023-10-08T02:27:08;101218.16;;;16.62;54.19
30708;BME280;17458;48.958;8.284;2023-10-08T02:29:54;101212.19;;;16.91;53.36
30708;BME280;17458;48.958;8.284;2023-10-08T02:32:38;101219.25;;;16.45;54.67
30708;BME280;17458;48.958;8.284;2023-10-08T02:35:26;101219.50;;;16.73;54.09
30708;BME280;17458;48.958;8.284;2023-10-08T02:38:11;101216.81;;;16.51;54.57
30708;BME280;17458;48.958;8.284;2023-10-08T02:41:02;101211.94;;;16.41;54.65
30708;BME280;17458;48.958;8.284;2023-10-08T02:43:50;101217.09;;;16.58;54.30
30708;BME280;17458;48.958;8.284;2023-10-08T02:46:34;101208.75;;;16.28;54.92
30708;BME280;17458;48.958;8.284;2023-10-08T02:49:21;101212.31;;;16.27;55.03
30708;BME280;17458;48.958;8.284;2023-10-08T02:52:08;101214.34;;;16.12;54.98
30708;BME280;17458;48.958;8.284;2023-10-08T02:54:53;101214.00;;;16.25;54.66
30708;BME280;17458;48.958;8.284;2023-10-08T02:57:37;101219.66;;;16.33;54.69
30708;BME280;17458;48.958;8.284;2023-10-08T03:00:21;101214.69;;;16.42;54.38
30708;BME280;17458;48.958;8.284;2023-10-08T03:03:14;101220.94;;;16.43;54.13
30708;BME280;17458;48.958;8.284;2023-10-08T03:06:02;101227.47;;;16.49;54.36
30708;BME280;17458;48.958;8.284;2023-10-08T03:08:47;101221.97;;;16.46;54.29
30708;BME280;17458;48.958;8.284;2023-10-08T03:11:31;101223.25;;;16.34;54.39
30708;BME280;17458;48.958;8.284;2023-10-08T03:14:16;101218.81;;;16.34;54.85
30708;BME280;17458;48.958;8.284;2023-10-08T03:17:07;101221.50;;;16.34;54.85
30708;BME280;17458;48.958;8.284;2023-10-08T03:19:51;101217.06;;;16.35;54.56
30708;BME280;17458;48.958;8.284;2023-10-08T03:22:35;101216.00;;;15.88;55.28
30708;BME280;17458;48.958;8.284;2023-10-08T03:25:21;101210.53;;;15.85;55.66
30708;BME280;17458;48.958;8.284;2023-10-08T03:28:08;101209.78;;;16.10;54.85
30708;BME280;17458;48.958;8.284;2023-10-08T03:30:56;101204.56;;;16.35;54.13
30708;BME280;17458;48.958;8.284;2023-10-08T03:33:46;101210.22;;;16.20;54.40
30708;BME280;17458;48.958;8.284;2023-10-08T03:36:36;101218.59;;;16.07;54.35
30708;BME280;17458;48.958;8.284;2023-10-08T03:39:28;101218.53;;;16.26;54.02
30708;BME280;17458;48.958;8.284;2023-10-08T03:42:32;101219.94;;;16.39;53.50
30708;BME280;17458;48.958;8.284;2023-10-08T03:45:24;101213.38;;;16.33;53.38
30708;BME280;17458;48.958;8.284;2023-10-08T03:48:27;101212.47;;;16.32;53.46
30708;BME280;17458;48.958;8.284;2023-10-08T03:51:18;101214.47;;;16.15;53.89
30708;BME280;17458;48.958;8.284;2023-10-08T03:54:06;101214.00;;;16.48;53.01
30708;BME280;17458;48.958;8.284;2023-10-08T03:56:53;101225.72;;;16.72;52.35
30708;BME280;17458;48.958;8.284;2023-10-08T03:59:37;101221.41;;;16.76;52.01
30708;BME280;17458;48.958;8.284;2023-10-08T04:02:24;101210.44;;;16.70;52.36
30708;BME280;17458;48.958;8.284;2023-10-08T04:05:23;101217.00;;;16.78;52.06
30708;BME280;17458;48.958;8.284;2023-10-08T04:08:16;101210.31;;;16.67;52.43
30708;BME280;17458;48.958;8.284;2023-10-08T04:11:18;101201.00;;;16.58;52.53
30708;BME280;17458;48.958;8.284;2023-10-08T04:14:24;101210.19;;;16.41;52.79
30708;BME280;17458;48.958;8.284;2023-10-08T04:17:08;101202.94;;;16.39;53.21
30708;BME280;17458;48.958;8.284;2023-10-08T04:19:53;101195.13;;;16.02;53.98
30708;BME280;17458;48.958;8.284;2023-10-08T04:22:38;101194.84;;;16.16;53.83
30708;BME280;17458;48.958;8.284;2023-10-08T04:25:21;101190.03;;;16.30;53.59
30708;BME280;17458;48.958;8.284;2023-10-08T04:28:05;101195.06;;;16.21;53.78
30708;BME280;17458;48.958;8.284;2023-10-08T04:30:50;101193.16;;;16.18;53.74
30708;BME280;17458;48.958;8.284;2023-10-08T04:33:35;101196.88;;;16.22;53.85
30708;BME280;17458;48.958;8.284;2023-10-08T04:36:20;101187.84;;;16.20;53.70
30708;BME280;17458;48.958;8.284;2023-10-08T04:39:04;101196.38;;;16.32;53.25
30708;BME280;17458;48.958;8.284;2023-10-08T04:41:56;101197.50;;;16.37;52.98
30708;BME280;17458;48.958;8.284;2023-10-08T04:44:43;101198.28;;;16.12;53.31
30708;BME280;17458;48.958;8.284;2023-10-08T04:47:27;101194.91;;;16.18;53.37
30708;BME280;17458;48.958;8.284;2023-10-08T04:50:15;101185.44;;;15.83;54.29
30708;BME280;17458;48.958;8.284;2023-10-08T04:53:02;101196.91;;;16.01;53.88
30708;BME280;17458;48.958;8.284;2023-10-08T04:55:51;101202.88;;;16.16;53.56
30708;BME280;17458;48.958;8.284;2023-10-08T04:58:35;101203.56;;;16.11;53.27
30708;BME280;17458;48.958;8.284;2023-10-08T05:01:24;101205.00;;;16.23;53.21
30708;BME280;17458;48.958;8.284;2023-10-08T05:04:24;101213.31;;;16.09;53.46
30708;BME280;17458;48.958;8.284;2023-10-08T05:07:10;101212.47;;;16.10;53.52
30708;BME280;17458;48.958;8.284;2023-10-08T05:10:14;101212.41;;;16.08;53.75
30708;BME280;17458;48.958;8.284;2023-10-08T05:13:07;101215.56;;;16.20;53.22
30708;BME280;17458;48.958;8.284;2023-10-08T05:15:51;101224.16;;;16.12;53.48
30708;BME280;17458;48.958;8.284;2023-10-08T05:18:54;101223.13;;;16.08;53.65
30708;BME280;17458;48.958;8.284;2023-10-08T05:21:51;101224.59;;;16.02;53.88
30708;BME280;17458;48.958;8.284;2023-10-08T05:24:46;101223.81;;;16.04;53.93
30708;BME280;17458;48.958;8.284;2023-10-08T05:27:52;101227.06;;;15.95;54.32
30708;BME280;17458;48.958;8.284;2023-10-08T05:30:37;101225.88;;;15.89;54.67
30708;BME280;17458;48.958;8.284;2023-10-08T05:33:22;101231.16;;;15.87;54.67
30708;BME280;17458;48.958;8.284;2023-10-08T05:36:12;101230.06;;;15.82;55.24
30708;BME280;17458;48.958;8.284;2023-10-08T05:39:02;101241.56;;;15.80;55.26
30708;BME280;17458;48.958;8.284;2023-10-08T05:42:09;101230.66;;;15.96;55.38
30708;BME280;17458;48.958;8.284;2023-10-08T05:45:12;101228.47;;;15.87;55.64
30708;BME280;17458;48.958;8.284;2023-10-08T05:47:56;101222.72;;;15.78;56.19
30708;BME280;17458;48.958;8.284;2023-10-08T05:51:06;101222.66;;;15.77;56.12
30708;BME280;17458;48.958;8.284;2023-10-08T05:53:57;101227.88;;;15.74;56.80
30708;BME280;17458;48.958;8.284;2023-10-08T05:56:41;101226.19;;;15.76;56.60
30708;BME280;17458;48.958;8.284;2023-10-08T05:59:48;101228.22;;;15.81;56.10
30708;BME280;17458;48.958;8.284;2023-10-08T06:02:42;101226.63;;;15.86;56.25
30708;BME280;17458;48.958;8.284;2023-10-08T06:05:29;101224.03;;;15.67;56.82
30708;BME280;17458;48.958;8.284;2023-10-08T06:08:16;101231.06;;;15.06;58.94
30708;BME280;17458;48.958;8.284;2023-10-08T06:11:21;101225.00;;;15.29;58.32
30708;BME280;17458;48.958;8.284;2023-10-08T06:14:24;101228.63;;;15.50;57.90
30708;BME280;17458;48.958;8.284;2023-10-08T06:17:26;101225.13;;;15.72;57.69
30708;BME280;17458;48.958;8.284;2023-10-08T06:20:39;101217.91;;;15.70;57.89
30708;BME280;17458;48.958;8.284;2023-10-08T06:23:28;101222.78;;;15.59;58.13
30708;BME280;17458;48.958;8.284;2023-10-08T06:26:15;101205.31;;;15.67;58.35
30708;BME280;17458;48.958;8.284;2023-10-08T06:29:04;101218.56;;;15.64;58.48
30708;BME280;17458;48.958;8.284;2023-10-08T06:32:02;101217.97;;;15.71;58.12
30708;BME280;17458;48.958;8.284;2023-10-08T06:34:46;101223.19;;;15.89;57.71
30708;BME280;17458;48.958;8.284;2023-10-08T06:37:30;101213.13;;;16.04;56.99
30708;BME280;17458;48.958;8.284;2023-10-08T06:40:17;101213.72;;;15.97;57.34
30708;BME280;17458;48.958;8.284;2023-10-08T06:43:22;101210.00;;;15.93;57.42
30708;BME280;17458;48.958;8.284;2023-10-08T06:46:08;101233.78;;;15.65;58.48
30708;BME280;17458;48.958;8.284;2023-10-08T06:48:52;101240.16;;;15.89;57.54
30708;BME280;17458;48.958;8.284;2023-10-08T06:51:38;101241.53;;;16.21;56.90
30708;BME280;17458;48.958;8.284;2023-10-08T06:54:22;101253.09;;;16.63;56.12
30708;BME280;17458;48.958;8.284;2023-10-08T06:57:06;101251.75;;;16.75;55.74
30708;BME280;17458;48.958;8.284;2023-10-08T06:59:57;101243.47;;;16.91;55.62
30708;BME280;17458;48.958;8.284;2023-10-08T07:02:42;101253.28;;;16.90;55.88
30708;BME280;17458;48.958;8.284;2023-10-08T07:05:26;101258.66;;;17.14;55.46
30708;BME280;17458;48.958;8.284;2023-10-08T07:08:13;101257.06;;;16.95;56.18
30708;BME280;17458;48.958;8.284;2023-10-08T07:11:03;101267.88;;;16.98;56.34
30708;BME280;17458;48.958;8.284;2023-10-08T07:13:55;101275.06;;;16.76;57.00
30708;BME280;17458;48.958;8.284;2023-10-08T07:16:40;101280.47;;;16.77;57.33
30708;BME280;17458;48.958;8.284;2023-10-08T07:19:30;101291.09;;;17.44;55.77
30708;BME280;17458;48.958;8.284;2023-10-08T07:22:21;101299.75;;;17.35;55.65
30708;BME280;17458;48.958;8.284;2023-10-08T07:25:12;101303.66;;;17.67;54.97
30708;BME280;17458;48.958;8.284;2023-10-08T07:27:58;101298.41;;;17.96;54.56
30708;BME280;17458;48.958;8.284;2023-10-08T07:30:42;101299.34;;;17.73;55.48
30708;BME280;17458;48.958;8.284;2023-10-08T07:33:28;101300.28;;;17.98;55.18
30708;BME280;17458;48.958;8.284;2023-10-08T07:36:20;101300.63;;;18.08;54.87
30708;BME280;17458;48.958;8.284;2023-10-08T07:39:04;101288.41;;;18.17;54.92
30708;BME280;17458;48.958;8.284;2023-10-08T07:41:54;101283.63;;;18.09;54.91
30708;BME280;17458;48.958;8.284;2023-10-08T07:44:39;101284.25;;;18.01;54.64
30708;BME280;17458;48.958;8.284;2023-10-08T07:47:23;101279.06;;;18.06;54.84
30708;BME280;17458;48.958;8.284;2023-10-08T07:50:07;101281.47;;;18.51;54.07
30708;BME280;17458;48.958;8.284;2023-10-08T07:52:56;101277.53;;;18.41;53.96
30708;BME280;17458;48.958;8.284;2023-10-08T07:55:39;101276.34;;;18.58;53.89
30708;BME280;17458;48.958;8.284;2023-10-08T07:58:23;101284.41;;;18.58;53.79
30708;BME280;17458;48.958;8.284;2023-10-08T08:01:08;101282.50;;;18.29;53.25
30708;BME280;17458;48.958;8.284;2023-10-08T08:03:57;101296.25;;;18.63;53.00
30708;BME280;17458;48.958;8.284;2023-10-08T08:06:41;101289.13;;;18.38;52.54
30708;BME280;17458;48.958;8.284;2023-10-08T08:09:25;101307.97;;;19.51;50.69
30708;BME280;17458;48.958;8.284;2023-10-08T08:12:10;101310.81;;;19.57;50.55
30708;BME280;17458;48.958;8.284;2023-10-08T08:14:56;101320.22;;;19.12;51.65
30708;BME280;17458;48.958;8.284;2023-10-08T08:17:44;101333.09;;;19.51;50.21
30708;BME280;17458;48.958;8.284;2023-10-08T08:20:28;101326.22;;;19.94;48.96
30708;BME280;17458;48.958;8.284;2023-10-08T08:23:30;101335.53;;;20.38;49.19
30708;BME280;17458;48.958;8.284;2023-10-08T08:26:20;101327.41;;;20.03;49.20
30708;BME280;17458;48.958;8.284;2023-10-08T08:29:10;101332.22;;;20.15;49.41
30708;BME280;17458;48.958;8.284;2023-10-08T08:31:59;101334.31;;;20.27;49.53
30708;BME280;17458;48.958;8.284;2023-10-08T08:34:48;101340.09;;;20.75;48.04
30708;BME280;17458;48.958;8.284;2023-10-08T08:37:36;101342.09;;;21.19;47.27
30708;BME280;17458;48.958;8.284;2023-10-08T08:40:22;101344.06;;;21.28;46.84
30708;BME280;17458;48.958;8.284;2023-10-08T08:43:07;101339.53;;;21.27;46.83
30708;BME280;17458;48.958;8.284;2023-10-08T08:45:51;101336.13;;;20.98;48.00
30708;BME280;17458;48.958;8.284;2023-10-08T08:48:36;101338.56;;;20.86;48.37
30708;BME280;17458;48.958;8.284;2023-10-08T08:51:22;101334.81;;;21.18;47.94
30708;BME280;17458;48.958;8.284;2023-10-08T08:54:07;101342.94;;;21.59;47.39
30708;BME280;17458;48.958;8.284;2023-10-08T08:56:53;101358.91;;;21.47;46.39
30708;BME280;17458;48.958;8.284;2023-10-08T08:59:58;101351.38;;;21.74;46.38
30708;BME280;17458;48.958;8.284;2023-10-08T09:02:44;101348.81;;;21.40;47.17
30708;BME280;17458;48.958;8.284;2023-10-08T09:05:30;101348.91;;;21.43;47.53
30708;BME280;17458;48.958;8.284;2023-10-08T09:08:21;101348.94;;;21.05;47.50
30708;BME280;17458;48.958;8.284;2023-10-08T09:11:14;101352.00;;;21.63;47.05
30708;BME280;17458;48.958;8.284;2023-10-08T09:14:02;101355.13;;;21.82;46.38
30708;BME280;17458;48.958;8.284;2023-10-08T09:16:46;101357.09;;;21.91;46.75
30708;BME280;17458;48.958;8.284;2023-10-08T09:19:38;101352.34;;;22.23;46.64
30708;BME280;17458;48.958;8.284;2023-10-08T09:22:22;101343.75;;;22.45;46.04
30708;BME280;17458;48.958;8.284;2023-10-08T09:25:06;101354.88;;;22.63;45.17
30708;BME280;17458;48.958;8.284;2023-10-08T09:27:55;101334.06;;;22.61;45.51
30708;BME280;17458;48.958;8.284;2023-10-08T09:30:40;101333.69;;;22.91;44.94
30708;BME280;17458;48.958;8.284;2023-10-08T09:33:24;101322.56;;;22.76;45.72
30708;BME280;17458;48.958;8.284;2023-10-08T09:36:10;101321.59;;;22.19;45.94
30708;BME280;17458;48.958;8.284;2023-10-08T09:39:02;101321.44;;;22.10;45.89
30708;BME280;17458;48.958;8.284;2023-10-08T09:41:50;101333.81;;;22.44;45.01
30708;BME280;17458;48.958;8.284;2023-10-08T09:44:35;101325.16;;;22.68;45.19
30708;BME280;17458;48.958;8.284;2023-10-08T09:47:21;101327.91;;;22.70;44.49
30708;BME280;17458;48.958;8.284;2023-10-08T09:50:09;101324.13;;;22.61;44.68
30708;BME280;17458;48.958;8.284;2023-10-08T09:53:08;101319.47;;;22.51;45.34
30708;BME280;17458;48.958;8.284;2023-10-08T09:55:56;101326.56;;;22.97;43.65
30708;BME280;17458;48.958;8.284;2023-10-08T09:58:41;101336.25;;;23.42;44.09
30708;BME280;17458;48.958;8.284;2023-10-08T10:01:27;101338.78;;;23.30;43.47
30708;BME280;17458;48.958;8.284;2023-10-08T10:04:22;101337.72;;;23.88;42.91
30708;BME280;17458;48.958;8.284;2023-10-08T10:07:12;101344.53;;;24.25;42.01
30708;BME280;17458;48.958;8.284;2023-10-08T10:09:56;101344.44;;;24.22;41.91
30708;BME280;17458;48.958;8.284;2023-10-08T10:12:41;101346.91;;;23.98;42.47
30708;BME280;17458;48.958;8.284;2023-10-08T10:15:27;101348.13;;;24.24;42.82
30708;BME280;17458;48.958;8.284;2023-10-08T10:18:16;101343.53;;;24.22;42.17
30708;BME280;17458;48.958;8.284;2023-10-08T10:23:56;101354.31;;;24.13;42.73
30708;BME280;17458;48.958;8.284;2023-10-08T10:26:41;101347.75;;;24.88;42.14
30708;BME280;17458;48.958;8.284;2023-10-08T10:29:29;101351.94;;;24.45;42.15
30708;BME280;17458;48.958;8.284;2023-10-08T10:32:16;101346.25;;;24.22;43.17
30708;BME280;17458;48.958;8.284;2023-10-08T10:35:01;101341.66;;;24.16;43.37
30708;BME280;17458;48.958;8.284;2023-10-08T10:37:49;101334.06;;;24.74;42.17
30708;BME280;17458;48.958;8.284;2023-10-08T10:40:36;101337.03;;;25.01;41.47
30708;BME280;17458;48.958;8.284;2023-10-08T10:43:26;101334.13;;;24.85;42.39
30708;BME280;17458;48.958;8.284;2023-10-08T10:46:17;101345.94;;;24.84;42.77
30708;BME280;17458;48.958;8.284;2023-10-08T10:49:14;101338.91;;;25.10;41.83
30708;BME280;17458;48.958;8.284;2023-10-08T10:52:25;101333.38;;;25.01;42.44
30708;BME280;17458;48.958;8.284;2023-10-08T10:55:28;101340.72;;;25.14;43.11
30708;BME280;17458;48.958;8.284;2023-10-08T10:58:18;101329.41;;;24.55;43.35
30708;BME280;17458;48.958;8.284;2023-10-08T11:01:08;101327.63;;;24.61;43.16
30708;BME280;17458;48.958;8.284;2023-10-08T11:03:59;101324.56;;;25.41;42.31
30708;BME280;17458;48.958;8.284;2023-10-08T11:06:44;101324.50;;;25.29;42.68
30708;BME280;17458;48.958;8.284;2023-10-08T11:09:29;101315.66;;;25.70;41.80
30708;BME280;17458;48.958;8.284;2023-10-08T11:12:23;101304.69;;;25.59;41.98
30708;BME280;17458;48.958;8.284;2023-10-08T11:15:10;101303.91;;;25.78;41.76
30708;BME280;17458;48.958;8.284;2023-10-08T11:17:59;101294.88;;;25.95;42.01
30708;BME280;17458;48.958;8.284;2023-10-08T11:20:44;101299.38;;;25.79;40.82
30708;BME280;17458;48.958;8.284;2023-10-08T11:23:32;101293.88;;;25.64;41.30
30708;BME280;17458;48.958;8.284;2023-10-08T11:26:17;101290.13;;;25.42;41.43
30708;BME280;17458;48.958;8.284;2023-10-08T11:29:02;101293.06;;;26.03;40.72
30708;BME280;17458;48.958;8.284;2023-10-08T11:31:47;101289.38;;;25.86;41.17
30708;BME280;17458;48.958;8.284;2023-10-08T11:34:32;101293.06;;;25.94;40.52
30708;BME280;17458;48.958;8.284;2023-10-08T11:37:30;101282.09;;;25.69;40.89
30708;BME280;17458;48.958;8.284;2023-10-08T11:40:27;101287.63;;;25.94;41.27
30708;BME280;17458;48.958;8.284;2023-10-08T11:43:31;101283.94;;;25.86;41.26
30708;BME280;17458;48.958;8.284;2023-10-08T11:46:17;101287.41;;;25.40;41.51
30708;BME280;17458;48.958;8.284;2023-10-08T11:49:02;101281.25;;;26.11;40.44
30708;BME280;17458;48.958;8.284;2023-10-08T11:51:49;101280.31;;;25.84;40.89
30708;BME280;17458;48.958;8.284;2023-10-08T11:54:36;101280.38;;;26.26;39.76
30708;BME280;17458;48.958;8.284;2023-10-08T11:57:20;101284.06;;;26.36;39.41
30708;BME280;17458;48.958;8.284;2023-10-08T12:00:06;101281.34;;;26.36;39.43
30708;BME280;17458;48.958;8.284;2023-10-08T12:03:02;101283.13;;;26.25;40.24
30708;BME280;17458;48.958;8.284;2023-10-08T12:05:49;101280.41;;;26.60;39.81
30708;BME280;17458;48.958;8.284;2023-10-08T12:08:36;101276.75;;;27.06;39.62
30708;BME280;17458;48.958;8.284;2023-10-08T12:11:23;101277.69;;;26.64;40.07
30708;BME280;17458;48.958;8.284;2023-10-08T12:14:14;101262.25;;;26.10;40.21
30708;BME280;17458;48.958;8.284;2023-10-08T12:16:59;101261.31;;;26.05;40.81
30708;BME280;17458;48.958;8.284;2023-10-08T12:19:44;101258.63;;;26.44;39.75
30708;BME280;17458;48.958;8.284;2023-10-08T12:22:29;101258.59;;;26.70;39.47
30708;BME280;17458;48.958;8.284;2023-10-08T12:25:13;101257.72;;;26.41;40.08
30708;BME280;17458;48.958;8.284;2023-10-08T12:28:01;101254.06;;;26.07;40.70
30708;BME280;17458;48.958;8.284;2023-10-08T12:30:47;101255.91;;;26.63;40.75
30708;BME280;17458;48.958;8.284;2023-10-08T12:33:33;101255.84;;;27.02;40.55
30708;BME280;17458;48.958;8.284;2023-10-08T12:36:17;101258.63;;;26.60;40.17
30708;BME280;17458;48.958;8.284;2023-10-08T12:39:02;101246.81;;;26.67;39.68
30708;BME280;17458;48.958;8.284;2023-10-08T12:41:58;101246.81;;;26.61;40.51
30708;BME280;17458;48.958;8.284;2023-10-08T12:44:49;101247.69;;;26.76;40.09
30708;BME280;17458;48.958;8.284;2023-10-08T12:47:33;101250.28;;;27.24;39.04
30708;BME280;17458;48.958;8.284;2023-10-08T12:50:20;101248.56;;;27.04;39.85
30708;BME280;17458;48.958;8.284;2023-10-08T12:53:12;101243.13;;;26.86;39.74
30708;BME280;17458;48.958;8.284;2023-10-08T12:56:07;101231.28;;;27.08;39.63
30708;BME280;17458;48.958;8.284;2023-10-08T12:58:58;101234.94;;;26.92;40.04
30708;BME280;17458;48.958;8.284;2023-10-08T13:01:43;101230.28;;;27.25;39.11
30708;BME280;17458;48.958;8.284;2023-10-08T13:04:27;101216.75;;;27.00;39.88
30708;BME280;17458;48.958;8.284;2023-10-08T13:07:12;101219.34;;;27.35;39.89
30708;BME280;17458;48.958;8.284;2023-10-08T13:09:56;101210.28;;;27.26;38.93
30708;BME280;17458;48.958;8.284;2023-10-08T13:12:41;101220.34;;;27.21;39.59
30708;BME280;17458;48.958;8.284;2023-10-08T13:15:25;101212.91;;;27.48;38.62
30708;BME280;17458;48.958;8.284;2023-10-08T13:18:10;101215.41;;;27.91;38.71
30708;BME280;17458;48.958;8.284;2023-10-08T13:20:54;101213.41;;;28.11;38.80
30708;BME280;17458;48.958;8.284;2023-10-08T13:23:39;101213.84;;;27.46;39.77
30708;BME280;17458;48.958;8.284;2023-10-08T13:26:23;101222.78;;;27.78;39.56
30708;BME280;17458;48.958;8.284;2023-10-08T13:29:08;101224.31;;;28.16;38.89
30708;BME280;17458;48.958;8.284;2023-10-08T13:31:52;101220.72;;;28.09;38.20
30708;BME280;17458;48.958;8.284;2023-10-08T13:34:37;101212.50;;;28.11;38.21
30708;BME280;17458;48.958;8.284;2023-10-08T13:37:21;101222.16;;;28.56;38.09
30708;BME280;17458;48.958;8.284;2023-10-08T13:40:06;101215.13;;;28.29;38.35
30708;BME280;17458;48.958;8.284;2023-10-08T13:42:50;101213.28;;;28.33;38.20
30708;BME280;17458;48.958;8.284;2023-10-08T13:45:36;101207.72;;;28.43;38.61
30708;BME280;17458;48.958;8.284;2023-10-08T13:48:21;101205.66;;;28.65;37.90
30708;BME280;17458;48.958;8.284;2023-10-08T13:51:08;101193.19;;;28.37;37.41
30708;BME280;17458;48.958;8.284;2023-10-08T13:53:57;101203.28;;;28.30;38.11
30708;BME280;17458;48.958;8.284;2023-10-08T13:56:44;101202.38;;;28.30;37.39
30708;BME280;17458;48.958;8.284;2023-10-08T13:59:32;101200.41;;;28.45;38.51
30708;BME280;17458;48.958;8.284;2023-10-08T14:02:16;101197.56;;;28.53;37.81
30708;BME280;17458;48.958;8.284;2023-10-08T14:05:03;101196.00;;;28.31;37.81
30708;BME280;17458;48.958;8.284;2023-10-08T14:07:52;101207.25;;;27.86;39.36
30708;BME280;17458;48.958;8.284;2023-10-08T14:10:37;101204.28;;;28.18;38.26
30708;BME280;17458;48.958;8.284;2023-10-08T14:13:21;101195.84;;;28.46;38.80
30708;BME280;17458;48.958;8.284;2023-10-08T14:16:04;101199.75;;;28.19;38.84
30708;BME280;17458;48.958;8.284;2023-10-08T14:18:55;101181.78;;;27.80;38.67
30708;BME280;17458;48.958;8.284;2023-10-08T14:21:43;101178.91;;;28.00;38.34
30708;BME280;17458;48.958;8.284;2023-10-08T14:24:37;101171.88;;;27.68;39.26
30708;BME280;17458;48.958;8.284;2023-10-08T14:27:22;101163.78;;;27.56;38.91
30708;BME280;17458;48.958;8.284;2023-10-08T14:30:10;101166.38;;;27.76;38.78
30708;BME280;17458;48.958;8.284;2023-10-08T14:33:04;101167.22;;;27.84;38.86
30708;BME280;17458;48.958;8.284;2023-10-08T14:35:53;101172.66;;;27.87;39.31
30708;BME280;17458;48.958;8.284;2023-10-08T14:38:55;101164.34;;;28.01;38.29
30708;BME280;17458;48.958;8.284;2023-10-08T14:41:58;101163.44;;;28.03;38.42
30708;BME280;17458;48.958;8.284;2023-10-08T14:45:02;101163.25;;;28.26;37.83